Time;durP1;ratioP1;P1;durP2;ratioP2;P2;SDS_P1;SDS_P2;PMS_P1;PMS_P2;Temp;Humidity;BMP_temperature;BMP_pressure;BME280_temperature;BME280_humidity;BME280_pressure;Samples;Min_cycle;Max_cycle;Signal;HPM_P1;HPM_P2
2021/08/11 00:00:30;;;;;;;12.53;11.53;;;23.40;94.60;;;;;;3634962;39;20442;-57
2021/08/11 00:02:58;;;;;;;13.30;12.37;;;23.40;94.60;;;;;;3639413;39;20951;-59
2021/08/11 00:05:26;;;;;;;13.60;12.60;;;23.40;94.60;;;;;;3638793;39;20477;-57
2021/08/11 00:07:53;;;;;;;12.93;12.03;;;23.40;94.50;;;;;;3639377;39;20457;-58
2021/08/11 00:10:23;;;;;;;12.70;11.90;;;23.30;94.50;;;;;;3640031;39;20461;-59
2021/08/11 00:12:50;;;;;;;12.77;11.77;;;23.30;94.50;;;;;;3640418;39;20921;-59
2021/08/11 00:15:18;;;;;;;11.17;10.57;;;23.40;94.50;;;;;;3639563;39;20465;-58
2021/08/11 00:17:45;;;;;;;12.30;11.50;;;23.40;94.50;;;;;;3640028;39;20502;-57
2021/08/11 00:20:13;;;;;;;12.70;11.70;;;23.30;94.40;;;;;;3634979;39;20474;-58
2021/08/11 00:22:40;;;;;;;12.53;11.73;;;23.30;94.40;;;;;;3629886;39;20534;-58
2021/08/11 00:25:08;;;;;;;12.07;11.37;;;23.30;94.40;;;;;;3633803;39;20481;-55
2021/08/11 00:27:37;;;;;;;12.50;11.50;;;23.30;94.40;;;;;;3638276;39;20472;-58
2021/08/11 00:30:05;;;;;;;12.27;11.50;;;23.30;94.40;;;;;;3630176;39;20495;-58
2021/08/11 00:32:33;;;;;;;12.60;11.70;;;23.30;94.40;;;;;;3628709;39;20519;-58
2021/08/11 00:35:01;;;;;;;13.20;12.30;;;23.30;94.40;;;;;;3629612;39;20466;-58
2021/08/11 00:37:29;;;;;;;12.20;11.50;;;23.30;94.30;;;;;;3633503;39;20571;-58
2021/08/11 00:39:59;;;;;;;13.30;12.33;;;23.30;94.30;;;;;;3638761;39;20457;-58
2021/08/11 00:42:27;;;;;;;12.33;11.63;;;23.30;94.30;;;;;;3638875;39;20563;-58
2021/08/11 00:44:55;;;;;;;12.33;11.40;;;23.30;94.30;;;;;;3638978;39;20719;-59
2021/08/11 00:47:29;;;;;;;12.73;11.93;;;23.30;94.30;;;;;;3638837;39;20483;-56
2021/08/11 00:49:57;;;;;;;11.60;10.90;;;23.30;94.30;;;;;;3629405;39;20566;-58
2021/08/11 00:52:24;;;;;;;12.60;11.73;;;23.30;94.30;;;;;;3628239;39;20502;-58
2021/08/11 00:54:56;;;;;;;12.10;11.40;;;23.30;94.20;;;;;;3628632;39;20470;-58
2021/08/11 00:57:28;;;;;;;11.77;11.03;;;23.30;94.20;;;;;;3632844;39;20764;-58
2021/08/11 00:59:58;;;;;;;12.20;11.50;;;23.30;94.20;;;;;;3638405;39;20461;-57
2021/08/11 01:02:28;;;;;;;12.23;11.53;;;23.30;94.20;;;;;;3638918;39;20458;-59
2021/08/11 01:04:59;;;;;;;13.10;11.93;;;23.30;94.20;;;;;;3638626;39;21286;-59
2021/08/11 01:07:29;;;;;;;12.50;11.60;;;23.30;94.50;;;;;;3632133;39;20468;-59
2021/08/11 01:09:59;;;;;;;12.83;11.93;;;23.30;94.10;;;;;;3636082;39;20461;-58
2021/08/11 01:12:28;;;;;;;11.50;10.90;;;23.30;94.10;;;;;;3636464;39;20481;-58
2021/08/11 01:15:00;;;;;;;11.73;10.70;;;23.30;94.10;;;;;;3635037;39;20474;-58
2021/08/11 01:17:30;;;;;;;11.97;11.27;;;23.30;94.10;;;;;;3628178;39;20450;-58
2021/08/11 01:20:05;;;;;;;12.17;11.40;;;23.30;94.10;;;;;;3627700;39;20972;-56
2021/08/11 01:22:39;;;;;;;102.63;13.93;;;23.30;94.10;;;;;;3627549;39;20539;-58
2021/08/11 01:25:13;;;;;;;12.10;11.30;;;23.30;94.10;;;;;;3629286;39;20474;-57
2021/08/11 01:28:16;;;;;;;12.00;11.20;;;23.30;94.10;;;;;;3638487;39;20753;-58
2021/08/11 01:30:52;;;;;;;12.27;11.50;;;23.30;94.10;;;;;;3638126;39;20457;-58
2021/08/11 01:33:44;;;;;;;11.60;10.90;;;23.30;94.10;;;;;;3637257;39;20525;-56
2021/08/11 01:36:21;;;;;;;12.50;11.70;;;23.30;94.10;;;;;;3630873;39;20667;-58
2021/08/11 01:38:54;;;;;;;12.47;11.40;;;23.30;94.00;;;;;;3626361;39;20450;-57
2021/08/11 01:41:29;;;;;;;12.67;11.97;;;23.30;94.00;;;;;;3628627;39;20470;-57
2021/08/11 01:43:58;;;;;;;12.30;11.50;;;23.30;94.00;;;;;;3628641;39;20511;-58
2021/08/11 01:46:28;;;;;;;12.90;12.00;;;23.30;94.00;;;;;;3627328;39;20463;-58
2021/08/11 01:49:03;;;;;;;12.30;11.50;;;23.30;94.00;;;;;;3628199;39;20450;-57
2021/08/11 01:51:32;;;;;;;12.40;11.50;;;23.30;94.00;;;;;;3628146;39;20478;-58
2021/08/11 01:54:01;;;;;;;12.67;11.60;;;23.30;94.00;;;;;;3637691;39;20461;-57
2021/08/11 01:56:29;;;;;;;11.60;10.80;;;23.30;94.00;;;;;;3629233;39;20960;-57
2021/08/11 01:58:58;;;;;;;12.77;11.97;;;23.30;94.00;;;;;;3628933;39;20488;-58
2021/08/11 02:01:26;;;;;;;12.47;11.67;;;23.30;94.00;;;;;;3636859;39;20493;-58
2021/08/11 02:03:54;;;;;;;12.37;11.70;;;23.30;94.00;;;;;;3625422;39;20746;-55
2021/08/11 02:06:23;;;;;;;12.33;11.53;;;23.30;94.00;;;;;;3633192;39;20573;-58
2021/08/11 02:09:00;;;;;;;11.73;11.10;;;23.30;93.90;;;;;;3639036;39;20446;-58
2021/08/11 02:11:30;;;;;;;12.47;11.57;;;23.30;93.90;;;;;;3626972;39;20594;-57
2021/08/11 02:14:00;;;;;;;12.00;11.10;;;23.30;93.90;;;;;;3635374;39;20450;-58
2021/08/11 02:16:27;;;;;;;12.20;11.50;;;23.30;93.90;;;;;;3635696;39;20461;-57
2021/08/11 02:18:55;;;;;;;11.70;11.07;;;23.30;93.90;;;;;;3629029;39;20509;-56
2021/08/11 02:21:26;;;;;;;12.40;11.70;;;23.30;93.90;;;;;;3637322;39;20446;-58
2021/08/11 02:23:54;;;;;;;11.97;11.27;;;23.30;93.90;;;;;;3636186;39;21087;-58
2021/08/11 02:26:32;;;;;;;12.63;11.83;;;23.30;93.90;;;;;;3636594;39;20462;-58
2021/08/11 02:29:05;;;;;;;13.17;11.90;;;23.30;93.90;;;;;;3637305;39;20449;-57
2021/08/11 02:31:45;;;;;;;12.90;12.10;;;23.30;93.90;;;;;;3637607;39;20457;-58
2021/08/11 02:34:23;;;;;;;12.00;11.30;;;23.30;93.90;;;;;;3632405;39;20458;-58
2021/08/11 02:36:58;;;;;;;12.00;11.27;;;23.30;93.80;;;;;;3627813;39;20485;-58
2021/08/11 02:39:32;;;;;;;11.97;11.47;;;23.30;93.80;;;;;;3627449;39;20466;-58
2021/08/11 02:42:06;;;;;;;12.90;12.13;;;23.30;93.80;;;;;;3627574;39;20483;-57
2021/08/11 02:44:38;;;;;;;12.40;11.60;;;23.30;93.80;;;;;;3627706;39;20542;-58
2021/08/11 02:47:07;;;;;;;12.20;11.50;;;23.30;93.80;;;;;;3636355;39;20454;-58
2021/08/11 02:49:37;;;;;;;12.00;11.50;;;23.30;93.80;;;;;;3637309;39;20510;-58
2021/08/11 02:52:09;;;;;;;12.83;12.23;;;23.30;93.80;;;;;;3637302;39;20474;-57
2021/08/11 02:54:40;;;;;;;12.10;11.43;;;23.30;93.80;;;;;;3637443;39;20453;-58
2021/08/11 02:57:09;;;;;;;11.90;11.20;;;23.30;93.80;;;;;;3627302;39;21068;-57
2021/08/11 02:59:37;;;;;;;12.13;11.53;;;23.30;93.80;;;;;;3625906;39;20474;-58
2021/08/11 03:02:08;;;;;;;12.40;11.80;;;23.30;93.70;;;;;;3626106;39;20462;-57
2021/08/11 03:04:36;;;;;;;11.50;10.90;;;23.30;93.70;;;;;;3626391;39;20498;-58
2021/08/11 03:07:03;;;;;;;12.50;11.80;;;23.30;93.70;;;;;;3627821;39;20457;-57
2021/08/11 03:09:33;;;;;;;12.53;11.73;;;23.30;93.70;;;;;;3627275;39;20872;-58
2021/08/11 03:12:01;;;;;;;12.20;11.47;;;23.30;93.70;;;;;;3626921;39;20490;-57
2021/08/11 03:14:34;;;;;;;11.80;11.10;;;23.30;93.70;;;;;;3632889;39;20469;-58
2021/08/11 03:17:02;;;;;;;12.57;11.70;;;23.30;93.70;;;;;;3627454;39;20563;-57
2021/08/11 03:19:29;;;;;;;12.53;11.80;;;23.30;93.70;;;;;;3625643;39;20513;-58
2021/08/11 03:21:56;;;;;;;13.37;12.43;;;23.30;93.70;;;;;;3625927;39;20907;-57
2021/08/11 03:24:25;;;;;;;12.60;11.70;;;23.30;93.70;;;;;;3617697;39;20459;-57
2021/08/11 03:26:54;;;;;;;13.80;12.80;;;23.30;93.70;;;;;;3626337;39;20985;-58
2021/08/11 03:29:23;;;;;;;13.50;12.70;;;23.30;93.70;;;;;;3626244;39;20449;-57
2021/08/11 03:31:50;;;;;;;13.73;12.93;;;23.30;93.70;;;;;;3617980;39;20459;-58
2021/08/11 03:34:18;;;;;;;12.93;12.23;;;23.30;93.70;;;;;;3633551;39;20772;-57
2021/08/11 03:36:51;;;;;;;13.03;12.33;;;23.30;93.60;;;;;;3626903;39;20538;-57
2021/08/11 03:39:18;;;;;;;12.47;11.70;;;23.30;93.60;;;;;;3625342;39;20466;-54
2021/08/11 03:41:46;;;;;;;12.20;11.40;;;23.30;93.70;;;;;;3624546;39;20536;-56
2021/08/11 03:44:16;;;;;;;13.20;12.37;;;23.30;93.60;;;;;;3623238;39;20546;-58
2021/08/11 03:46:44;;;;;;;13.03;12.23;;;23.30;93.70;;;;;;3630613;39;20554;-58
2021/08/11 03:49:13;;;;;;;12.30;11.70;;;23.30;93.60;;;;;;3636293;39;20546;-58
2021/08/11 03:51:42;;;;;;;13.80;13.07;;;23.30;93.70;;;;;;3635638;39;20831;-58
2021/08/11 03:54:10;;;;;;;14.33;13.53;;;23.30;93.60;;;;;;3636061;39;21173;-57
2021/08/11 03:56:37;;;;;;;13.93;13.10;;;23.30;93.60;;;;;;3632779;39;20478;-57
2021/08/11 03:59:06;;;;;;;13.23;12.40;;;23.30;93.70;;;;;;3616970;39;20535;-58
2021/08/11 04:01:35;;;;;;;12.73;12.13;;;23.30;93.60;;;;;;3625199;39;20501;-58
2021/08/11 04:04:02;;;;;;;13.93;13.33;;;23.30;93.70;;;;;;3625758;39;20483;-58
2021/08/11 04:06:29;;;;;;;14.30;13.27;;;23.30;93.60;;;;;;3625510;39;20477;-57
2021/08/11 04:08:57;;;;;;;15.07;14.17;;;23.30;93.60;;;;;;3625875;39;20487;-58
2021/08/11 04:11:24;;;;;;;14.43;13.63;;;23.30;93.70;;;;;;3630602;39;20458;-57
2021/08/11 04:13:51;;;;;;;14.00;13.10;;;23.30;93.70;;;;;;3635515;39;20480;-58
2021/08/11 04:16:18;;;;;;;14.33;13.40;;;23.30;93.70;;;;;;3632086;39;20474;-57
2021/08/11 04:18:47;;;;;;;13.63;12.83;;;23.30;93.70;;;;;;3624931;39;20439;-57
2021/08/11 04:21:14;;;;;;;13.13;12.53;;;23.30;93.70;;;;;;3625976;39;20450;-58
2021/08/11 04:24:07;;;;;;;14.07;13.27;;;23.30;93.70;;;;;;3623285;39;20522;-58
2021/08/11 04:26:35;;;;;;;14.20;13.20;;;23.30;93.70;;;;;;3624707;39;20707;-57
2021/08/11 04:29:02;;;;;;;13.77;13.17;;;23.30;93.70;;;;;;3624393;39;20466;-58
2021/08/11 04:31:29;;;;;;;13.87;13.27;;;23.30;93.70;;;;;;3625341;39;20453;-58
2021/08/11 04:33:58;;;;;;;13.53;12.90;;;23.30;93.70;;;;;;3624806;39;20465;-58
2021/08/11 04:36:25;;;;;;;13.00;12.30;;;23.30;93.70;;;;;;3627802;39;21099;-58
2021/08/11 04:38:53;;;;;;;13.60;12.80;;;23.30;93.70;;;;;;3623647;39;20442;-57
2021/08/11 04:41:20;;;;;;;14.13;13.27;;;23.30;93.70;;;;;;3622634;39;20550;-57
2021/08/11 04:43:47;;;;;;;13.90;12.77;;;23.30;93.60;;;;;;3622246;39;20443;-58
2021/08/11 04:46:16;;;;;;;13.83;13.13;;;23.30;93.70;;;;;;3625943;39;20549;-58
2021/08/11 04:48:43;;;;;;;12.93;12.33;;;23.30;93.70;;;;;;3631252;39;20434;-58
2021/08/11 04:51:11;;;;;;;14.10;13.07;;;23.30;93.60;;;;;;3624565;39;20520;-58
2021/08/11 04:53:39;;;;;;;13.50;12.60;;;23.30;93.60;;;;;;3622518;39;20458;-58
2021/08/11 04:56:06;;;;;;;15.17;13.80;;;23.30;93.60;;;;;;3627328;39;20546;-58
2021/08/11 04:58:33;;;;;;;14.37;13.27;;;23.30;93.70;;;;;;3631525;39;20683;-57
2021/08/11 05:01:00;;;;;;;13.17;12.40;;;23.30;93.70;;;;;;3629636;39;20487;-56
2021/08/11 05:03:28;;;;;;;13.47;12.70;;;23.30;93.70;;;;;;3629089;39;20504;-57
2021/08/11 05:05:56;;;;;;;14.17;13.37;;;23.30;93.70;;;;;;3630065;39;20458;-58
2021/08/11 05:08:24;;;;;;;14.30;13.50;;;23.30;93.70;;;;;;3633328;39;20515;-57
2021/08/11 05:10:51;;;;;;;14.60;13.60;;;23.30;93.70;;;;;;3623060;39;20906;-57
2021/08/11 05:13:18;;;;;;;14.00;13.13;;;23.30;93.70;;;;;;3628492;39;20480;-57
2021/08/11 05:15:46;;;;;;;14.67;13.63;;;23.30;93.60;;;;;;3631197;39;20532;-58
2021/08/11 05:18:13;;;;;;;14.83;13.73;;;23.30;93.60;;;;;;3621382;39;20855;-58
2021/08/11 05:20:41;;;;;;;14.17;13.13;;;23.30;93.70;;;;;;3620933;39;20470;-57
2021/08/11 05:23:08;;;;;;;14.83;13.80;;;23.30;93.60;;;;;;3620402;39;20528;-57
2021/08/11 05:25:37;;;;;;;16.00;14.90;;;23.30;93.60;;;;;;3620829;39;20450;-58
2021/08/11 05:28:05;;;;;;;16.43;15.23;;;23.30;93.60;;;;;;3629379;39;20446;-58
2021/08/11 05:30:32;;;;;;;15.70;14.70;;;23.30;93.60;;;;;;3628951;39;20454;-57
2021/08/11 05:32:59;;;;;;;14.80;13.97;;;23.30;93.60;;;;;;3628368;39;20546;-58
2021/08/11 05:35:29;;;;;;;15.67;14.67;;;23.30;93.60;;;;;;3620439;39;20715;-57
2021/08/11 05:37:56;;;;;;;15.87;14.77;;;23.30;93.60;;;;;;3618869;39;20449;-57
2021/08/11 05:40:23;;;;;;;15.83;14.70;;;23.30;93.60;;;;;;3618072;39;20493;-58
2021/08/11 05:42:52;;;;;;;15.13;14.10;;;23.30;93.60;;;;;;3615322;39;20522;-58
2021/08/11 05:45:19;;;;;;;16.10;14.80;;;23.30;93.60;;;;;;3617631;39;20451;-58
2021/08/11 05:47:46;;;;;;;15.87;14.80;;;23.30;93.60;;;;;;3623137;39;20474;-56
2021/08/11 05:50:14;;;;;;;15.10;14.20;;;23.30;93.60;;;;;;3623097;39;20725;-58
2021/08/11 05:52:41;;;;;;;15.97;15.00;;;23.30;93.80;;;;;;3620337;39;20474;-59
2021/08/11 05:55:09;;;;;;;15.93;14.77;;;22.90;94.50;;;;;;3617668;39;20461;-57
2021/08/11 05:57:38;;;;;;;15.30;14.40;;;22.60;95.00;;;;;;3621404;39;20454;-58
2021/08/11 06:00:09;;;;;;;16.83;15.63;;;22.30;95.60;;;;;;3613386;39;20502;-57
2021/08/11 06:02:38;;;;;;;16.27;15.27;;;22.00;96.00;;;;;;3612409;39;20446;-57
2021/08/11 06:05:29;;;;;;;16.97;15.77;;;21.80;96.50;;;;;;3616127;39;20466;-57
2021/08/11 06:07:56;;;;;;;16.63;15.63;;;21.70;96.90;;;;;;3617916;39;21316;-57
2021/08/11 06:10:23;;;;;;;17.23;16.13;;;21.70;97.10;;;;;;3618674;39;20526;-58
2021/08/11 06:12:53;;;;;;;18.20;16.67;;;21.80;97.10;;;;;;3618906;39;20962;-57
2021/08/11 06:15:22;;;;;;;19.10;17.63;;;21.90;97.00;;;;;;3620826;39;20462;-58
2021/08/11 06:17:51;;;;;;;16.90;15.77;;;22.00;97.10;;;;;;3608292;39;21266;-57
2021/08/11 06:20:20;;;;;;;15.33;14.53;;;22.00;97.00;;;;;;3606082;39;21653;-58
2021/08/11 06:22:47;;;;;;;16.83;15.47;;;22.10;96.90;;;;;;3608264;39;20475;-58
2021/08/11 06:25:16;;;;;;;16.47;15.30;;;22.20;97.00;;;;;;3615978;39;20616;-58
2021/08/11 06:27:43;;;;;;;14.43;13.70;;;22.30;97.00;;;;;;3618067;39;20474;-58
2021/08/11 06:30:12;;;;;;;13.17;12.57;;;22.30;96.90;;;;;;3616775;39;21010;-58
2021/08/11 06:32:42;;;;;;;14.83;13.67;;;22.30;96.90;;;;;;3597591;39;20478;-57
2021/08/11 06:35:10;;;;;;;13.10;12.40;;;22.40;96.90;;;;;;3606333;39;20462;-58
2021/08/11 06:37:45;;;;;;;13.70;12.90;;;22.40;96.90;;;;;;3608059;39;20451;-57
2021/08/11 06:40:14;;;;;;;14.60;13.80;;;22.50;97.00;;;;;;3608388;39;20450;-56
2021/08/11 06:42:42;;;;;;;14.27;13.47;;;22.50;97.00;;;;;;3607250;39;20466;-58
2021/08/11 06:45:13;;;;;;;13.60;12.30;;;22.50;96.90;;;;;;3606097;39;21473;-57
2021/08/11 06:47:43;;;;;;;13.03;12.33;;;22.60;97.20;;;;;;3606601;39;20479;-55
2021/08/11 06:50:13;;;;;;;13.20;12.40;;;22.60;97.40;;;;;;3608395;39;20469;-58
2021/08/11 06:52:40;;;;;;;13.60;12.93;;;22.60;97.20;;;;;;3601057;39;20754;-55
2021/08/11 06:55:09;;;;;;;13.60;12.80;;;22.70;97.00;;;;;;3603626;39;20462;-57
2021/08/11 06:57:37;;;;;;;12.37;11.67;;;22.70;97.10;;;;;;3602363;39;21146;-56
2021/08/11 07:00:06;;;;;;;13.60;12.50;;;22.80;97.20;;;;;;3602234;39;20829;-58
2021/08/11 07:02:33;;;;;;;13.80;12.90;;;22.80;97.50;;;;;;3606223;39;20454;-58
2021/08/11 07:05:02;;;;;;;13.30;12.70;;;22.80;97.50;;;;;;3605727;39;20459;-57
2021/08/11 07:07:30;;;;;;;14.63;13.83;;;22.70;97.50;;;;;;3606046;39;20723;-58
2021/08/11 07:09:57;;;;;;;14.97;14.07;;;22.70;97.40;;;;;;3608188;39;20834;-57
2021/08/11 07:12:25;;;;;;;14.70;13.63;;;22.80;97.30;;;;;;3606727;39;20478;-58
2021/08/11 07:14:52;;;;;;;14.17;13.30;;;22.80;97.50;;;;;;3604647;39;20455;-57
2021/08/11 07:17:20;;;;;;;15.07;14.17;;;22.80;97.60;;;;;;3607002;39;20458;-58
2021/08/11 07:19:47;;;;;;;14.50;13.60;;;22.90;97.30;;;;;;3603929;39;20952;-57
2021/08/11 07:22:16;;;;;;;14.70;13.80;;;22.90;97.20;;;;;;3605028;39;20490;-59
2021/08/11 07:24:44;;;;;;;14.13;13.33;;;23.00;97.40;;;;;;3611981;39;20482;-56
2021/08/11 07:27:11;;;;;;;14.50;13.60;;;23.00;97.40;;;;;;3613718;39;20596;-56
2021/08/11 07:29:38;;;;;;;14.73;13.83;;;23.00;97.40;;;;;;3608910;39;20557;-57
2021/08/11 07:32:06;;;;;;;15.23;14.33;;;23.10;97.50;;;;;;3605980;39;20567;-57
2021/08/11 07:34:34;;;;;;;14.67;13.87;;;23.10;97.00;;;;;;3605879;39;20558;-59
2021/08/11 07:37:01;;;;;;;14.60;13.60;;;23.20;96.90;;;;;;3605280;39;20485;-58
2021/08/11 07:39:38;;;;;;;14.53;13.50;;;23.20;96.70;;;;;;3607270;39;20476;-58
2021/08/11 07:42:08;;;;;;;14.43;13.43;;;23.20;96.60;;;;;;3608467;39;20457;-58
2021/08/11 07:44:40;;;;;;;13.87;13.13;;;23.30;96.50;;;;;;3613812;39;20454;-58
2021/08/11 07:47:14;;;;;;;14.57;13.67;;;23.30;96.50;;;;;;3606834;39;20470;-57
2021/08/11 07:49:44;;;;;;;12.77;12.13;;;23.30;96.40;;;;;;3607177;39;20551;-57
2021/08/11 07:52:11;;;;;;;14.30;13.50;;;23.30;96.30;;;;;;3605041;39;20490;-57
2021/08/11 07:54:41;;;;;;;13.10;12.40;;;23.30;96.30;;;;;;3600961;39;20483;-58
2021/08/11 07:57:10;;;;;;;14.43;13.43;;;23.30;96.30;;;;;;3592095;39;20908;-57
2021/08/11 07:59:39;;;;;;;13.67;12.80;;;23.30;96.20;;;;;;3601434;39;20467;-58
2021/08/11 08:02:11;;;;;;;13.90;13.23;;;23.30;96.20;;;;;;3591823;39;20459;-57
2021/08/11 08:04:41;;;;;;;13.30;12.70;;;23.40;96.20;;;;;;3589424;39;21186;-56
2021/08/11 08:07:09;;;;;;;13.60;12.90;;;23.30;96.20;;;;;;3590730;39;20711;-58
2021/08/11 08:09:37;;;;;;;14.30;13.47;;;23.30;96.20;;;;;;3584704;39;20479;-58
2021/08/11 08:12:18;;;;;;;13.93;13.23;;;23.40;96.20;;;;;;3592555;39;20464;-57
2021/08/11 08:14:48;;;;;;;13.70;13.00;;;23.40;96.20;;;;;;3595663;39;20472;-58
2021/08/11 08:17:23;;;;;;;13.43;12.83;;;23.40;96.20;;;;;;3591878;39;20452;-58
2021/08/11 08:19:58;;;;;;;13.57;12.90;;;23.40;96.20;;;;;;3598239;39;20498;-58
2021/08/11 08:22:27;;;;;;;13.37;12.77;;;23.40;96.20;;;;;;3603587;39;20664;-58
2021/08/11 08:24:56;;;;;;;13.93;13.23;;;23.40;96.20;;;;;;3603657;39;20842;-58
2021/08/11 08:27:32;;;;;;;13.90;12.90;;;23.40;96.20;;;;;;3600529;39;20455;-57
2021/08/11 08:30:04;;;;;;;13.53;12.90;;;23.40;96.20;;;;;;3604476;39;20482;-57
2021/08/11 08:32:35;;;;;;;13.50;12.77;;;23.40;96.20;;;;;;3604719;39;20564;-58
2021/08/11 08:35:05;;;;;;;14.23;13.40;;;23.40;96.20;;;;;;3593750;39;20482;-58
2021/08/11 08:37:38;;;;;;;13.60;12.80;;;23.40;96.20;;;;;;3593234;39;20528;-55
2021/08/11 08:40:10;;;;;;;12.90;12.10;;;23.50;96.30;;;;;;3599022;39;20477;-57
2021/08/11 08:42:40;;;;;;;14.13;13.13;;;23.50;96.40;;;;;;3601900;39;20479;-58
2021/08/11 08:45:13;;;;;;;13.80;13.00;;;23.50;96.40;;;;;;3599388;39;20518;-56
2021/08/11 08:47:43;;;;;;;13.43;12.73;;;23.50;96.50;;;;;;3606390;39;20551;-57
2021/08/11 08:50:15;;;;;;;13.73;12.97;;;23.50;96.50;;;;;;3606107;39;20491;-56
2021/08/11 08:52:45;;;;;;;12.40;11.80;;;23.50;96.50;;;;;;3601513;39;20490;-57
2021/08/11 08:55:14;;;;;;;13.87;12.97;;;23.50;96.50;;;;;;3595119;39;21243;-58
2021/08/11 08:57:46;;;;;;;13.27;12.57;;;23.50;96.60;;;;;;3592296;39;20459;-58
2021/08/11 09:00:16;;;;;;;13.10;12.23;;;23.50;96.90;;;;;;3596749;39;20501;-57
2021/08/11 09:02:46;;;;;;;12.93;12.33;;;23.50;96.70;;;;;;3585398;39;20467;-58
2021/08/11 09:05:14;;;;;;;13.20;12.60;;;23.50;96.70;;;;;;3599512;39;20474;-58
2021/08/11 09:07:45;;;;;;;13.27;12.57;;;23.50;96.70;;;;;;3597861;39;20460;-57
2021/08/11 09:10:22;;;;;;;13.10;12.40;;;23.50;96.80;;;;;;3601031;39;20490;-57
2021/08/11 09:12:57;;;;;;;13.40;12.80;;;23.50;96.80;;;;;;3605882;39;20533;-55
2021/08/11 09:15:27;;;;;;;15.57;14.53;;;23.50;96.80;;;;;;3605283;39;20772;-57
2021/08/11 09:17:57;;;;;;;13.37;12.70;;;23.50;96.80;;;;;;3596116;39;20593;-58
2021/08/11 09:20:27;;;;;;;15.27;14.13;;;23.60;96.80;;;;;;3603639;39;20497;-57
2021/08/11 09:23:00;;;;;;;13.50;12.80;;;23.60;96.90;;;;;;3595729;39;20530;-58
2021/08/11 09:28:22;;;;;;;13.47;12.87;;;23.60;96.90;;;;;;3598206;39;20475;-57
2021/08/11 09:30:51;;;;;;;13.03;12.53;;;23.60;96.90;;;;;;3601345;39;20519;-58
2021/08/11 09:33:26;;;;;;;12.80;12.10;;;23.60;96.90;;;;;;3603774;39;20886;-58
2021/08/11 09:36:11;;;;;;;13.30;12.70;;;23.60;96.90;;;;;;3602586;39;20475;-59
2021/08/11 09:38:56;;;;;;;13.10;12.40;;;23.60;96.80;;;;;;3605066;39;21340;-59
2021/08/11 09:41:26;;;;;;;13.50;12.80;;;23.60;96.80;;;;;;3603882;39;20497;-59
2021/08/11 09:44:12;;;;;;;12.93;12.30;;;23.60;96.80;;;;;;3603483;39;20482;-59
2021/08/11 09:46:42;;;;;;;13.43;12.70;;;23.60;96.80;;;;;;3600997;39;20462;-58
2021/08/11 09:49:19;;;;;;;14.00;13.20;;;23.60;96.80;;;;;;3596725;39;20474;-58
2021/08/11 09:52:00;;;;;;;13.03;12.43;;;23.60;96.80;;;;;;3599939;39;20506;-59
2021/08/11 09:54:31;;;;;;;13.77;13.13;;;23.60;96.80;;;;;;3589385;39;20847;-58
2021/08/11 09:57:01;;;;;;;14.17;13.17;;;23.60;96.80;;;;;;3602619;39;20750;-59
2021/08/11 10:00:00;;;;;;;14.83;14.03;;;23.60;96.80;;;;;;3596331;39;21335;-58
2021/08/11 10:02:33;;;;;;;15.73;14.93;;;23.60;96.90;;;;;;3605729;39;20458;-58
2021/08/11 10:05:05;;;;;;;14.57;13.67;;;23.60;96.80;;;;;;3608508;39;20449;-58
2021/08/11 10:07:35;;;;;;;14.13;13.43;;;23.60;96.80;;;;;;3602481;39;20466;-58
2021/08/11 10:10:13;;;;;;;15.20;14.30;;;23.60;96.80;;;;;;3599099;39;20841;-58
2021/08/11 10:12:43;;;;;;;14.80;13.90;;;23.60;96.80;;;;;;3591917;39;20515;-58
2021/08/11 10:15:21;;;;;;;14.83;14.13;;;23.60;97.10;;;;;;3599494;39;20472;-57
2021/08/11 10:17:53;;;;;;;16.03;15.13;;;23.60;96.80;;;;;;3587984;39;20468;-58
2021/08/11 10:20:34;;;;;;;15.43;14.63;;;23.60;96.80;;;;;;3605439;39;20489;-57
2021/08/11 10:23:03;;;;;;;14.97;14.23;;;23.50;96.70;;;;;;3601403;39;20475;-58
2021/08/11 10:25:33;;;;;;;14.97;14.20;;;23.50;96.70;;;;;;3606774;39;20509;-58
2021/08/11 10:28:04;;;;;;;16.00;15.00;;;23.50;96.70;;;;;;3605278;39;21103;-58
2021/08/11 10:30:38;;;;;;;15.00;14.20;;;23.50;96.70;;;;;;3595431;39;20467;-58
2021/08/11 10:33:10;;;;;;;15.80;14.90;;;23.50;96.70;;;;;;3599940;39;20451;-58
2021/08/11 10:35:43;;;;;;;15.73;14.67;;;23.50;96.70;;;;;;3603044;39;20857;-58
2021/08/11 10:38:10;;;;;;;14.57;13.73;;;23.50;96.70;;;;;;3606949;39;20475;-58
2021/08/11 10:40:42;;;;;;;14.20;13.50;;;23.50;96.70;;;;;;3609508;39;21258;-58
2021/08/11 10:43:15;;;;;;;14.93;14.03;;;23.50;96.70;;;;;;3610704;39;20489;-55
2021/08/11 10:46:10;;;;;;;15.03;14.20;;;23.50;96.70;;;;;;3611396;39;20465;-56
2021/08/11 10:48:42;;;;;;;15.80;14.80;;;23.50;96.70;;;;;;3616584;39;20493;-59
2021/08/11 10:51:11;;;;;;;15.77;14.83;;;23.50;96.70;;;;;;3609003;39;20486;-58
2021/08/11 10:53:39;;;;;;;15.47;14.67;;;23.50;96.70;;;;;;3604443;39;20869;-57
2021/08/11 10:56:11;;;;;;;15.27;14.37;;;23.50;96.70;;;;;;3603911;39;20475;-57
2021/08/11 10:58:45;;;;;;;14.70;13.80;;;23.50;96.70;;;;;;3609122;39;20468;-57
2021/08/11 11:01:33;;;;;;;14.60;13.80;;;23.50;96.70;;;;;;3614665;39;20457;-57
2021/08/11 11:04:03;;;;;;;15.20;14.30;;;23.60;96.80;;;;;;3609719;39;20510;-57
2021/08/11 11:07:13;;;;;;;14.43;13.63;;;23.60;96.80;;;;;;3608135;39;20481;-57
2021/08/11 11:09:45;;;;;;;14.67;14.00;;;23.60;96.90;;;;;;3613525;39;20471;-57
2021/08/11 11:12:40;;;;;;;13.80;13.00;;;23.60;96.90;;;;;;3609133;39;20475;-58
2021/08/11 11:15:11;;;;;;;13.60;12.83;;;23.60;97.00;;;;;;3608289;39;20677;-57
2021/08/11 11:18:18;;;;;;;13.50;12.80;;;23.60;97.00;;;;;;3609452;39;20478;-57
2021/08/11 11:20:49;;;;;;;13.13;12.20;;;23.60;97.00;;;;;;3599331;39;20487;-56
2021/08/11 11:23:35;;;;;;;13.07;12.37;;;23.60;97.10;;;;;;3594348;39;20474;-58
2021/08/11 11:26:09;;;;;;;13.67;12.77;;;23.60;97.20;;;;;;3597487;39;20482;-57
2021/08/11 11:30:51;;;;;;;13.30;12.40;;;23.60;97.10;;;;;;2477208;54;5745967;-58
2021/08/11 11:33:43;;;;;;;13.53;12.83;;;23.60;97.10;;;;;;2579456;54;20150;-57
2021/08/11 11:36:31;;;;;;;13.30;12.50;;;23.60;97.10;;;;;;2578588;54;20513;-57
2021/08/11 11:39:13;;;;;;;12.67;12.07;;;23.60;97.20;;;;;;2585261;54;20413;-57
2021/08/11 11:42:27;;;;;;;14.00;13.20;;;23.60;97.20;;;;;;2578326;31;20867;-56
2021/08/11 11:45:05;;;;;;;13.87;13.17;;;23.70;97.20;;;;;;2579260;54;21328;-58
2021/08/11 11:48:15;;;;;;;12.03;11.43;;;23.60;97.10;;;;;;2584844;54;20397;-56
2021/08/11 11:50:50;;;;;;;14.53;13.40;;;23.70;97.30;;;;;;2584037;54;20571;-57
2021/08/11 11:53:21;;;;;;;13.37;12.60;;;23.70;97.30;;;;;;2580462;38;20955;-58
2021/08/11 11:55:50;;;;;;;13.23;12.60;;;23.70;97.30;;;;;;2581611;54;20392;-58
2021/08/11 11:58:21;;;;;;;13.47;12.53;;;23.70;97.30;;;;;;2583405;54;20440;-57
2021/08/11 12:00:52;;;;;;;13.80;12.90;;;23.70;97.30;;;;;;2582217;54;21292;-57
2021/08/11 12:03:22;;;;;;;13.77;12.97;;;23.70;97.30;;;;;;2577248;54;20456;-57
2021/08/11 12:06:06;;;;;;;14.10;13.00;;;23.70;97.30;;;;;;2579576;54;20410;-57
2021/08/11 12:08:36;;;;;;;13.53;12.70;;;23.70;97.20;;;;;;2584802;38;21030;-57
2021/08/11 12:11:09;;;;;;;13.83;13.10;;;23.70;97.20;;;;;;2583834;47;20520;-58
2021/08/11 12:13:47;;;;;;;14.83;13.93;;;23.70;97.10;;;;;;2578655;54;20416;-57
2021/08/11 12:16:18;;;;;;;13.40;12.60;;;23.70;97.10;;;;;;2581789;54;20382;-57
2021/08/11 12:18:50;;;;;;;13.80;12.97;;;23.70;97.10;;;;;;2582788;54;20587;-58
2021/08/11 12:21:23;;;;;;;14.17;13.20;;;23.70;97.00;;;;;;2585734;54;20418;-57
2021/08/11 12:23:54;;;;;;;13.27;12.57;;;23.70;97.00;;;;;;2579743;54;20437;-57
2021/08/11 12:26:53;;;;;;;13.70;12.80;;;23.70;97.00;;;;;;2577287;54;20406;-56
2021/08/11 12:29:23;;;;;;;12.83;12.13;;;23.70;97.00;;;;;;2579557;38;21166;-57
2021/08/11 12:31:53;;;;;;;13.07;12.37;;;23.80;96.90;;;;;;2581712;54;20417;-57
2021/08/11 12:34:22;;;;;;;13.53;12.93;;;23.80;97.00;;;;;;2584592;54;20441;-57
2021/08/11 12:36:54;;;;;;;13.10;12.50;;;23.80;96.90;;;;;;2587894;54;21302;-56
2021/08/11 12:39:25;;;;;;;13.80;12.80;;;23.80;96.90;;;;;;2586148;54;20447;-58
2021/08/11 12:42:12;;;;;;;13.40;12.70;;;23.80;96.90;;;;;;2581631;54;20442;-58
2021/08/11 12:44:42;;;;;;;12.83;12.20;;;23.80;96.90;;;;;;2579286;54;20488;-57
2021/08/11 12:47:19;;;;;;;12.37;11.80;;;23.80;96.90;;;;;;2582485;54;20411;-59
2021/08/11 12:49:51;;;;;;;14.00;13.10;;;23.80;96.80;;;;;;2581067;54;20426;-59
2021/08/11 12:52:29;;;;;;;13.60;12.87;;;23.80;96.80;;;;;;2581576;47;20398;-57